메인 페이지
METAR-TAF:

METAR-TAF

공항 :

헨더슨, 네바다, 미국

위도: 35-58-35N, 경도: 115-07-58W, 고도: 749m

현재 날씨관측

예보는 52분 전, 18:56시(UTC)에 발표되었습니다.
남서15kt, 순간 최대 풍속 20kt
온도 38°C
습도 9%
기압 1014 hPa
시정: 16.1km
맑음

METAR: KHND 131856Z 23015G20KT 10SM CLR 38/00 A2995 RMK AO2 SLP120 T03780000

시각: 12:48 (19:48 UTC)

예보

예보는 2 시간 16분 전, 17:32시(UTC)에 발표되었습니다.
예보 대상 시간: 13일 18시부터 14일 18시까지 (UTC)
남남서12kt, 순간 최대 풍속 20kt
시정: 10km
고도 20000ft 상공 구름 보통
14일 0300시부터 (UTC)
10kt
시정: 10km
고도 20000ft 상공 구름 보통
14일 1400시부터 (UTC)
여러 방향의 바람 5kt
시정: 10km
맑음

TAF: KHND 131732Z 1318/1418 20012G20KT P6SM SCT200 FM140300 19010KT P6SM SCT200 FM141400 VRB05KT P6SM SKC

4,000개 이상의 공항 관측 자료 및 예보 (METAR 및 TAF 보고).

지도상에서 검색 가능한 기상관측소가 노란 점과 빨간 점으로 표시되어 있습니다.

기상관측소 명을 보려면 표시 위로 마우스를 이동하세요.

날씨 관측과 예보를 보려면 클릭하세요.

지도 변경 : 확대하려면 엑스 표시가 있는 녹색 버튼, 축소하려면 빼기 표시가 있는 녹색 버튼, 다음 페이지의 지도를 보려면 녹색 화살표를 클릭하세요.


METAR-TAF: